»·PEaware :: DAL1741 KSLC-KPDX

DAL1741 :: KSLC-KPDX

FLIGHT INFORMATION

Flight Status: Arrived
Operator:
Delta Air Lines
More flights by this operator :: More flights under this callsign
Pilot: Joe P. (13940)
Aircraft: MCDONNELL-DOUGLAS MD-82
(MD82)
More flights by this aircraft type
Origin: KSLC Salt Lake City Intl
United States
Destination: KPDX Portland Intl
United States
More flights between these airports :: More routes between these airports
Route: +TWF4 TWF J15 BOI J163 BKE JOTBA HHOOD4
File this flight plan on PilotEdge
Remarks: SEL / ABCD KSEA -PBN / B3B4B5D3D4 DOF / 180513 REG / N904DL EET / KZSE0056
Altitude:
(Current/Filed)
360ft
Speed:
(Current/Filed)
447kts
Departed: 13-May-18 08:11 AM
Arrived: 13-May-18 09:43 AM
Distance/Time
Traveled:
546nm/1:32
Distance/Time
To Go:
Arrived

Flight Plot

Page will automatically refresh every two minutes.

Flight plan parsing failed; only flown route is shown


Map Options




Map Legend


Flown Route
Filed Route
Departure Airport
Arrival Airport
Navaid (VOR, NDB)
Fix

Horizontal Profiles

Position Reports

Time Latitude Longitude Heading Altitude Ground
Speed
13-May-18 07:16 40.785586 -111.978056 231 4236ft 0kts
13-May-18 07:17 40.785586 -111.978056 231 4236ft 0kts
13-May-18 07:18 40.785586 -111.978056 231 4236ft 0kts
13-May-18 07:19 40.785586 -111.978056 231 4236ft 0kts
13-May-18 07:20 40.785586 -111.978056 231 4236ft 0kts
13-May-18 07:21 40.785586 -111.978056 231 4236ft 0kts
13-May-18 07:22 40.785586 -111.978056 231 4236ft 0kts
13-May-18 07:23 40.785586 -111.978056 231 4236ft 0kts
13-May-18 07:24 40.785586 -111.978056 231 4236ft 0kts
13-May-18 07:25 40.785586 -111.978056 231 4236ft 0kts
13-May-18 07:26 40.785586 -111.978056 231 4236ft 0kts
13-May-18 07:27 40.785586 -111.978056 231 4236ft 0kts
13-May-18 07:28 40.785586 -111.978056 231 4236ft 0kts
13-May-18 07:29 40.785586 -111.978056 231 4236ft 0kts
13-May-18 07:30 40.785586 -111.978056 231 4236ft 0kts
13-May-18 07:31 40.785586 -111.978056 231 4236ft 0kts
13-May-18 07:32 40.785586 -111.978056 231 4236ft 0kts
13-May-18 07:33 40.785586 -111.978056 231 4236ft 0kts
13-May-18 07:34 40.785586 -111.978056 231 4236ft 0kts
13-May-18 07:35 40.785586 -111.978056 231 4236ft 0kts
13-May-18 07:36 40.785586 -111.978056 231 4236ft 0kts
13-May-18 07:37 40.785586 -111.978056 231 4236ft 0kts
13-May-18 07:38 40.785586 -111.978056 231 4236ft 0kts
13-May-18 07:39 40.785586 -111.978056 231 4236ft 0kts
13-May-18 07:40 40.785586 -111.978056 231 4236ft 0kts
13-May-18 07:41 40.785586 -111.978056 231 4236ft 0kts
13-May-18 07:42 40.785586 -111.978056 231 4236ft 0kts
13-May-18 07:43 40.785586 -111.978056 231 4236ft 0kts
13-May-18 07:44 40.785586 -111.978056 231 4236ft 0kts
13-May-18 07:45 40.785586 -111.978056 231 4236ft 0kts
13-May-18 07:46 40.785586 -111.978056 231 4236ft 0kts
13-May-18 07:47 40.785586 -111.978056 231 4236ft 0kts
13-May-18 07:48 40.785586 -111.978056 231 4236ft 0kts
13-May-18 07:49 40.785586 -111.978056 231 4236ft 0kts
13-May-18 07:50 40.785586 -111.978056 231 4236ft 0kts
13-May-18 07:51 40.785586 -111.978056 231 4236ft 0kts
13-May-18 07:52 40.785586 -111.978056 231 4236ft 0kts
13-May-18 07:53 40.785586 -111.978056 231 4236ft 0kts
13-May-18 07:54 40.785586 -111.978056 231 4236ft 0kts
13-May-18 07:55 40.785586 -111.978056 231 4236ft 0kts
13-May-18 07:56 40.785586 -111.978056 231 4236ft 0kts
13-May-18 07:57 40.785586 -111.978056 231 4236ft 0kts
13-May-18 07:58 40.785586 -111.978056 231 4236ft 0kts
13-May-18 07:59 40.785586 -111.978056 231 4236ft 0kts
13-May-18 08:00 40.785847 -111.977264 265 4236ft 2kts
13-May-18 08:01 40.785750 -111.976497 293 4236ft 0kts
13-May-18 08:02 40.785750 -111.976497 293 4236ft 0kts
13-May-18 08:03 40.785750 -111.976497 293 4236ft 0kts
13-May-18 08:04 40.785954 -111.976759 332 4236ft 6kts
13-May-18 08:05 40.788681 -111.977159 341 4236ft 13kts
13-May-18 08:06 40.793271 -111.977551 355 4236ft 19kts
13-May-18 08:07 40.799220 -111.978219 354 4236ft 20kts
13-May-18 08:08 40.804823 -111.978840 355 4236ft 16kts
13-May-18 08:09 40.807474 -111.978753 63 4236ft 0kts
13-May-18 08:10 40.807394 -111.977290 116 4236ft 7kts
13-May-18 08:11 40.804122 -111.976513 175 4236ft 65kts
13-May-18 08:12 40.763521 -111.971946 178 5108ft 179kts
13-May-18 08:13 40.733704 -112.027271 264 6411ft 240kts
13-May-18 08:14 40.758773 -112.113225 300 8588ft 261kts
13-May-18 08:15 40.795706 -112.202197 293 10620ft 291kts
13-May-18 08:16 40.823273 -112.284762 292 12796ft 298kts
13-May-18 08:17 40.893353 -112.347640 332 15212ft 319kts
13-May-18 08:18 40.977699 -112.390894 337 17527ft 331kts
13-May-18 08:19 41.082612 -112.436323 333 19952ft 346kts
13-May-18 08:20 41.164831 -112.503499 320 21624ft 351kts
13-May-18 08:21 41.243895 -112.585434 316 22199ft 382kts
13-May-18 08:22 41.311793 -112.665518 308 23003ft 399kts
13-May-18 08:23 41.385828 -112.778049 307 24492ft 408kts
13-May-18 08:24 41.461917 -112.892411 306 25817ft 416kts
13-May-18 08:25 41.538637 -113.010048 308 26966ft 424kts
13-May-18 08:26 41.617082 -113.130070 309 27995ft 431kts
13-May-18 08:27 41.695952 -113.252165 309 28886ft 436kts
13-May-18 08:28 41.775753 -113.375983 310 29660ft 442kts
13-May-18 08:29 41.856579 -113.501389 311 30534ft 442kts
13-May-18 08:30 41.936601 -113.626290 311 31373ft 441kts
13-May-18 08:31 42.016483 -113.751419 311 32183ft 439kts
13-May-18 08:32 42.094172 -113.873851 311 33588ft 421kts
13-May-18 08:33 42.168202 -113.990709 311 35069ft 400kts
13-May-18 08:34 42.239318 -114.103247 311 36058ft 391kts
13-May-18 08:35 42.311130 -114.217178 311 36080ft 407kts
13-May-18 08:36 42.385371 -114.336123 311 36080ft 421kts
13-May-18 08:37 42.462363 -114.459262 312 36079ft 433kts
13-May-18 08:38 42.540063 -114.582307 313 36079ft 429kts
13-May-18 08:39 42.619151 -114.703966 314 36082ft 427kts
13-May-18 08:40 42.697549 -114.825668 314 36083ft 427kts
13-May-18 08:41 42.775481 -114.947494 314 36088ft 427kts
13-May-18 08:42 42.853330 -115.069696 315 36088ft 426kts
13-May-18 08:43 42.930857 -115.191346 315 36084ft 424kts
13-May-18 08:44 43.007979 -115.313481 315 36080ft 424kts
13-May-18 08:45 43.084878 -115.436063 316 36076ft 424kts
13-May-18 08:46 43.161673 -115.557940 316 36073ft 422kts
13-May-18 08:47 43.238124 -115.679913 316 36075ft 422kts
13-May-18 08:48 43.314400 -115.802715 317 36076ft 422kts
13-May-18 08:49 43.390166 -115.925116 317 36076ft 421kts
13-May-18 08:50 43.466073 -116.047979 318 36077ft 417kts
13-May-18 08:51 43.540814 -116.170184 318 36078ft 418kts
13-May-18 08:52 43.623346 -116.278565 328 36081ft 407kts
13-May-18 08:53 43.709756 -116.380998 326 36083ft 408kts
13-May-18 08:54 43.794617 -116.485180 326 36086ft 409kts
13-May-18 08:55 43.879453 -116.589631 326 36090ft 408kts
13-May-18 08:56 43.964465 -116.694588 326 36093ft 406kts
13-May-18 08:57 44.048862 -116.799711 326 36095ft 408kts
13-May-18 08:58 44.133583 -116.905351 325 36097ft 407kts
13-May-18 08:59 44.217614 -117.010711 325 36095ft 408kts
13-May-18 09:00 44.301680 -117.116227 325 36092ft 407kts
13-May-18 09:01 44.385634 -117.222234 325 36085ft 405kts
13-May-18 09:02 44.469382 -117.328034 325 36077ft 405kts
13-May-18 09:03 44.553213 -117.433698 325 36070ft 406kts
13-May-18 09:04 44.636891 -117.540486 325 36064ft 405kts
13-May-18 09:05 44.719993 -117.647385 325 36061ft 406kts
13-May-18 09:06 44.803461 -117.754816 325 36059ft 406kts
13-May-18 09:07 44.856594 -117.901587 291 36061ft 442kts
13-May-18 09:08 44.876258 -118.073750 285 36057ft 444kts
13-May-18 09:09 44.897882 -118.244807 287 36055ft 442kts
13-May-18 09:10 44.920628 -118.414733 286 36055ft 442kts
13-May-18 09:11 44.941646 -118.585053 286 36048ft 441kts
13-May-18 09:12 44.963122 -118.755967 286 36046ft 440kts
13-May-18 09:13 44.984408 -118.925893 286 36043ft 439kts
13-May-18 09:14 45.005621 -119.095669 285 36026ft 440kts
13-May-18 09:15 45.025700 -119.266066 285 36025ft 439kts
13-May-18 09:16 45.045979 -119.435885 285 36025ft 437kts
13-May-18 09:17 45.066481 -119.605850 285 36024ft 437kts
13-May-18 09:18 45.085816 -119.775287 284 36022ft 438kts
13-May-18 09:19 45.105170 -119.944737 284 36020ft 436kts
13-May-18 09:20 45.124522 -120.114279 284 36018ft 432kts
13-May-18 09:21 45.140904 -120.284282 283 34911ft 437kts
13-May-18 09:22 45.160959 -120.454509 285 32369ft 441kts
13-May-18 09:23 45.202248 -120.615755 306 29812ft 431kts
13-May-18 09:24 45.261893 -120.759977 304 27267ft 417kts
13-May-18 09:25 45.315793 -120.903465 304 24699ft 404kts
13-May-18 09:26 45.368691 -121.041137 305 22282ft 390kts
13-May-18 09:27 45.419474 -121.174800 301 19923ft 380kts
13-May-18 09:28 45.454468 -121.319317 289 16541ft 384kts
13-May-18 09:29 45.480044 -121.456686 291 15535ft 345kts
13-May-18 09:30 45.506681 -121.590521 289 12234ft 342kts
13-May-18 09:31 45.530629 -121.715295 284 10908ft 300kts
13-May-18 09:32 45.536721 -121.827627 274 9938ft 293kts
13-May-18 09:33 45.540366 -121.938693 273 8152ft 270kts
13-May-18 09:34 45.543896 -122.039884 258 6781ft 249kts
13-May-18 09:35 45.509252 -122.123611 233 6289ft 261kts
13-May-18 09:36 45.472093 -122.210200 265 5037ft 254kts
13-May-18 09:37 45.483894 -122.306528 284 4028ft 219kts
13-May-18 09:38 45.507503 -122.374416 303 3058ft 167kts
13-May-18 09:39 45.529608 -122.428224 299 2140ft 151kts
13-May-18 09:40 45.550045 -122.480675 298 1408ft 151kts
13-May-18 09:41 45.569980 -122.532109 299 637ft 147kts
13-May-18 09:42 45.588774 -122.580152 299 27ft 69kts
13-May-18 09:43 45.591938 -122.589338 277 27ft 0kts
13-May-18 09:44 45.591938 -122.589341 277 27ft 0kts
13-May-18 09:45 45.591938 -122.589344 277 27ft 0kts
13-May-18 09:46 45.592112 -122.591491 270 27ft 10kts
13-May-18 09:47 45.592229 -122.595264 233 27ft 6kts
13-May-18 09:48 45.591949 -122.595587 215 27ft 0kts
13-May-18 09:49 45.591949 -122.595587 215 27ft 0kts
13-May-18 09:50 45.591949 -122.595587 215 27ft 0kts
13-May-18 09:51 45.591949 -122.595587 215 27ft 0kts
13-May-18 09:52 45.591949 -122.595587 215 27ft 0kts

Navigation Log

Ident Type
Flight plan parsing failed, navigation log unavailable